createdAt,value
2018-05-08T00:00:15.097Z,95350.56
2018-05-08T00:02:43.334Z,95350.05
2018-05-08T00:05:11.578Z,95342.98
2018-05-08T00:07:39.812Z,95339.67
2018-05-08T00:10:08.830Z,95337.02
2018-05-08T00:12:37.070Z,95335.06
2018-05-08T00:15:06.074Z,95327.23
2018-05-08T00:17:35.074Z,95333.16
2018-05-08T00:20:04.087Z,95324.67
2018-05-08T00:22:32.329Z,95328.37
2018-05-08T00:25:00.565Z,95323.05
2018-05-08T00:27:28.809Z,95321.87
2018-05-08T00:29:57.050Z,95314.25
2018-05-08T00:32:25.341Z,95311.91
2018-05-08T00:34:54.338Z,95306.08
2018-05-08T00:37:23.358Z,95299.27
2018-05-08T00:39:51.594Z,95298.59
2018-05-08T00:42:20.611Z,95294.45
2018-05-08T00:44:48.850Z,95295.70
2018-05-08T00:47:17.077Z,95291.39
2018-05-08T00:49:45.529Z,95295.25
2018-05-08T00:52:14.526Z,95293.91
2018-05-08T00:55:00.592Z,95290.81
2018-05-08T00:57:28.817Z,95282.73
2018-05-08T00:59:57.046Z,95279.45
2018-05-08T01:02:25.296Z,95280.66
2018-05-08T01:04:53.617Z,95277.33
2018-05-08T01:07:21.815Z,95275.06
2018-05-08T01:09:50.010Z,95275.82
2018-05-08T01:12:18.244Z,95266.38
2018-05-08T01:14:47.249Z,95269.92
2018-05-08T01:17:15.481Z,95276.66
2018-05-08T01:19:43.733Z,95275.17
2018-05-08T01:22:11.956Z,95275.87
2018-05-08T01:24:40.954Z,95271.57
2018-05-08T01:27:09.963Z,95280.83
2018-05-08T01:29:38.193Z,95279.88
2018-05-08T01:32:06.661Z,95276.45
2018-05-08T01:34:34.899Z,95276.14
2018-05-08T01:37:03.125Z,95278.91
2018-05-08T01:39:31.373Z,95270.52
2018-05-08T01:41:59.606Z,95270.77
2018-05-08T01:44:28.185Z,95270.80
2018-05-08T01:46:57.184Z,95271.77
2018-05-08T01:49:25.422Z,95274.70
2018-05-08T01:51:53.678Z,95268.27
2018-05-08T01:54:21.985Z,95270.37
2018-05-08T01:56:50.216Z,95267.57
2018-05-08T01:59:18.475Z,95267.64
2018-05-08T02:01:46.703Z,95262.55
2018-05-08T02:04:14.938Z,95258.40
2018-05-08T02:06:43.177Z,95259.98
2018-05-08T02:09:12.186Z,95261.23
2018-05-08T02:11:40.421Z,95266.89
2018-05-08T02:14:08.846Z,95259.19
2018-05-08T02:16:37.073Z,95255.30
2018-05-08T02:19:05.302Z,95254.52
2018-05-08T02:21:33.545Z,95252.09
2018-05-08T02:24:02.546Z,95254.95
2018-05-08T02:26:31.570Z,95248.86
2018-05-08T02:28:59.806Z,95249.23
2018-05-08T02:31:28.815Z,95245.37
2018-05-08T02:33:57.821Z,95244.03
2018-05-08T02:36:26.073Z,95233.91
2018-05-08T02:38:55.070Z,95233.27
2018-05-08T02:41:24.071Z,95232.14
2018-05-08T02:43:53.083Z,95229.72
2018-05-08T02:46:21.325Z,95236.10
2018-05-08T02:48:50.325Z,95236.91
2018-05-08T02:51:19.337Z,95231.69
2018-05-08T02:53:47.570Z,95232.00
2018-05-08T02:56:15.817Z,95231.75
2018-05-08T02:58:44.153Z,95231.66
2018-05-08T03:01:13.158Z,95230.31
2018-05-08T03:03:41.394Z,95232.92
2018-05-08T03:06:09.643Z,95234.81
2018-05-08T03:08:37.866Z,95227.44
2018-05-08T03:11:06.884Z,95231.21
2018-05-08T03:13:35.114Z,95229.88
2018-05-08T03:16:03.444Z,95236.79
2018-05-08T03:18:31.675Z,95234.00
2018-05-08T03:21:00.670Z,95238.95
2018-05-08T03:23:29.681Z,95233.17
2018-05-08T03:25:57.913Z,95227.28
2018-05-08T03:28:26.450Z,95234.30
2018-05-08T03:30:54.680Z,95230.28
2018-05-08T03:33:23.678Z,95232.68
2018-05-08T03:35:51.962Z,95227.91
2018-05-08T03:38:20.173Z,95230.98
2018-05-08T03:40:48.498Z,95234.20
2018-05-08T03:43:16.725Z,95233.73
2018-05-08T03:45:44.959Z,95226.36
2018-05-08T03:48:13.201Z,95225.94
2018-05-08T03:50:41.446Z,95222.07
2018-05-08T03:53:09.681Z,95231.72
2018-05-08T03:55:37.921Z,95236.84
2018-05-08T03:58:06.253Z,95231.05
2018-05-08T04:00:53.074Z,95235.24
2018-05-08T04:03:38.953Z,95229.92
2018-05-08T04:06:11.435Z,95229.63
2018-05-08T04:08:39.684Z,95232.45
2018-05-08T04:11:07.930Z,95225.07
2018-05-08T04:13:36.161Z,95226.81
2018-05-08T04:16:04.419Z,95224.81
2018-05-08T04:18:33.461Z,95224.20
2018-05-08T04:21:01.704Z,95221.39
2018-05-08T04:23:30.705Z,95219.63
2018-05-08T04:25:58.949Z,95218.04
2018-05-08T04:28:27.265Z,95218.66
2018-05-08T04:30:55.507Z,95221.47
2018-05-08T04:33:23.750Z,95221.62
2018-05-08T04:35:51.989Z,95220.11
2018-05-08T04:38:20.242Z,95219.31
2018-05-08T04:40:49.246Z,95220.25
2018-05-08T04:43:18.237Z,95218.72
2018-05-08T04:45:47.252Z,95224.91
2018-05-08T04:48:15.491Z,95211.87
2018-05-08T04:50:43.726Z,95215.09
2018-05-08T04:53:11.970Z,95230.50
2018-05-08T04:55:40.201Z,95222.70
2018-05-08T04:58:08.438Z,95223.52
2018-05-08T05:00:36.682Z,95224.80
2018-05-08T05:03:05.682Z,95220.47
2018-05-08T05:05:33.926Z,95218.81
2018-05-08T05:08:02.174Z,95224.14
2018-05-08T05:10:30.422Z,95221.16
2018-05-08T05:12:58.670Z,95223.64
2018-05-08T05:15:27.658Z,95227.91
2018-05-08T05:17:56.689Z,95223.84
2018-05-08T05:20:24.918Z,95218.95
2018-05-08T05:22:53.164Z,95215.81
2018-05-08T05:25:21.493Z,95213.37
2018-05-08T05:27:50.494Z,95213.39
2018-05-08T05:30:18.746Z,95214.38
2018-05-08T05:32:47.853Z,95210.98
2018-05-08T05:35:16.861Z,95214.92
2018-05-08T05:37:45.098Z,95212.79
2018-05-08T05:40:13.342Z,95211.06
2018-05-08T05:42:41.686Z,95206.80
2018-05-08T05:45:09.831Z,95206.80
2018-05-08T05:47:38.086Z,95194.96
2018-05-08T05:50:06.323Z,95187.33
2018-05-08T05:52:34.567Z,95187.89
2018-05-08T05:55:03.603Z,95193.22
2018-05-08T05:57:31.830Z,95191.42
2018-05-08T06:00:00.846Z,95195.32
2018-05-08T06:02:29.838Z,95199.57
2018-05-08T06:04:58.111Z,95199.16
2018-05-08T06:07:27.119Z,95198.81
2018-05-08T06:09:55.349Z,95199.86
2018-05-08T06:12:23.607Z,95189.09
2018-05-08T06:14:51.858Z,95189.02
2018-05-08T06:17:20.170Z,95195.11
2018-05-08T06:19:49.102Z,95199.75
2018-05-08T06:22:17.346Z,95197.95
2018-05-08T06:24:45.602Z,95187.69
2018-05-08T06:27:13.851Z,95197.45
2018-05-08T06:29:42.088Z,95199.64
2018-05-08T06:32:11.100Z,95193.01
2018-05-08T06:34:39.334Z,95188.06
2018-05-08T06:37:07.582Z,95190.20
2018-05-08T06:39:35.893Z,95190.31
2018-05-08T06:42:04.836Z,95191.79
2018-05-08T06:44:33.078Z,95184.17
2018-05-08T06:47:02.082Z,95183.63
2018-05-08T06:49:31.093Z,95186.50
2018-05-08T06:51:59.326Z,95180.31
2018-05-08T06:54:27.569Z,95177.31
2018-05-08T06:56:55.824Z,95180.89
2018-05-08T06:59:24.055Z,95194.23
2018-05-08T07:01:52.286Z,95188.80
2018-05-08T07:04:20.542Z,95185.02
2018-05-08T07:06:48.785Z,95186.93
2018-05-08T07:09:17.069Z,95186.48
2018-05-08T07:11:45.278Z,95187.34
2018-05-08T07:14:13.542Z,95189.36
2018-05-08T07:16:41.773Z,95181.43
2018-05-08T07:19:10.016Z,95186.70
2018-05-08T07:21:38.253Z,95182.69
2018-05-08T07:24:07.271Z,95178.47
2018-05-08T07:26:35.497Z,95178.16
2018-05-08T07:29:03.733Z,95182.95
2018-05-08T07:31:31.965Z,95187.61
2018-05-08T07:34:00.962Z,95183.34
2018-05-08T07:36:29.997Z,95188.82
2018-05-08T07:38:58.245Z,95172.99
2018-05-08T07:41:26.490Z,95174.39
2018-05-08T07:43:54.781Z,95171.20
2018-05-08T07:46:23.782Z,95177.86
2018-05-08T07:48:52.974Z,95172.02
2018-05-08T07:51:22.006Z,95171.91
2018-05-08T07:53:50.243Z,95162.84
2018-05-08T07:56:19.253Z,95166.51
2018-05-08T07:58:47.501Z,95167.06
2018-05-08T08:01:16.493Z,95166.14
2018-05-08T08:03:45.509Z,95160.61
2018-05-08T08:06:13.756Z,95166.44
2018-05-08T08:08:41.985Z,95167.89
2018-05-08T08:11:10.229Z,95164.83
2018-05-08T08:13:38.465Z,95157.30
2018-05-08T08:16:06.716Z,95156.56
2018-05-08T08:18:34.981Z,95162.48
2018-05-08T08:21:03.237Z,95163.77
2018-05-08T08:23:32.233Z,95164.31
2018-05-08T08:26:00.470Z,95160.29
2018-05-08T08:28:28.719Z,95158.23
2018-05-08T08:30:56.966Z,95151.95
2018-05-08T08:33:25.201Z,95145.72
2018-05-08T08:35:53.435Z,95151.66
2018-05-08T08:38:21.865Z,95165.85
2018-05-08T08:40:50.938Z,95156.28
2018-05-08T08:43:19.866Z,95159.54
2018-05-08T08:45:48.876Z,95160.11
2018-05-08T08:48:17.112Z,95151.71
2018-05-08T08:50:45.345Z,95148.12
2018-05-08T08:53:13.578Z,95151.63
2018-05-08T08:55:42.622Z,95146.30
2018-05-08T08:58:10.857Z,95150.33
2018-05-08T09:00:39.093Z,95143.75
2018-05-08T09:03:07.342Z,95145.61
2018-05-08T09:05:35.586Z,95147.74
2018-05-08T09:08:04.585Z,95138.30
2018-05-08T09:10:32.835Z,95136.14
2018-05-08T09:13:01.844Z,95135.94
2018-05-08T09:15:30.943Z,95130.52
2018-05-08T09:17:59.928Z,95130.91
2018-05-08T09:20:28.937Z,95131.68
2018-05-08T09:22:57.507Z,95123.60
2018-05-08T09:25:25.737Z,95116.75
2018-05-08T09:27:53.965Z,95109.27
2018-05-08T09:30:22.987Z,95125.46
2018-05-08T09:32:51.265Z,95113.44
2018-05-08T09:35:19.801Z,95115.02
2018-05-08T09:37:48.805Z,95107.20
2018-05-08T09:40:17.045Z,95103.44
2018-05-08T09:42:45.302Z,95102.56
2018-05-08T09:45:13.777Z,95101.91
2018-05-08T09:47:42.006Z,95099.52
2018-05-08T09:50:11.010Z,95101.31
2018-05-08T09:52:39.275Z,95105.02
2018-05-08T09:55:08.273Z,95098.80
2018-05-08T09:57:36.501Z,95091.54
2018-05-08T10:00:04.755Z,95095.00
2018-05-08T10:02:33.000Z,95082.56
2018-05-08T10:05:01.243Z,95076.26
2018-05-08T10:07:29.478Z,95083.01
2018-05-08T10:09:57.715Z,95073.81
2018-05-08T10:12:26.726Z,95070.80
2018-05-08T10:14:54.970Z,95069.19
2018-05-08T10:17:23.214Z,95059.44
2018-05-08T10:19:51.451Z,95062.34
2018-05-08T10:22:19.695Z,95063.20
2018-05-08T10:24:47.926Z,95051.61
2018-05-08T10:27:16.187Z,95056.06
2018-05-08T10:29:44.418Z,95057.91
2018-05-08T10:32:12.718Z,95047.59
2018-05-08T10:34:41.738Z,95053.21
2018-05-08T10:37:09.966Z,95057.75
2018-05-08T10:39:38.971Z,95048.66
2018-05-08T10:42:07.986Z,95045.31
2018-05-08T10:44:36.218Z,95048.70
2018-05-08T10:47:04.556Z,95044.44
2018-05-08T10:49:32.707Z,95040.63
2018-05-08T10:52:00.958Z,95034.16
2018-05-08T10:54:29.957Z,95032.70
2018-05-08T10:56:58.997Z,95030.16
2018-05-08T10:59:27.248Z,95027.20
2018-05-08T11:01:55.478Z,95026.66
2018-05-08T11:04:23.744Z,95022.36
2018-05-08T11:06:51.965Z,95016.70
2018-05-08T11:09:20.218Z,95016.83
2018-05-08T11:11:49.217Z,95013.92
2018-05-08T11:14:18.237Z,95012.83
2018-05-08T11:16:46.470Z,95012.41
2018-05-08T11:19:14.732Z,95012.40
2018-05-08T11:21:42.950Z,95008.94
2018-05-08T11:24:11.956Z,95011.02
2018-05-08T11:26:40.279Z,95005.19
2018-05-08T11:29:08.444Z,94998.53
2018-05-08T11:31:36.770Z,94987.15
2018-05-08T11:34:05.766Z,94988.83
2018-05-08T11:36:34.011Z,94989.97
2018-05-08T11:39:02.246Z,94977.30
2018-05-08T11:41:30.494Z,94983.63
2018-05-08T11:43:58.738Z,94978.23
2018-05-08T11:46:26.969Z,94969.36
2018-05-08T11:48:55.216Z,94969.91
2018-05-08T11:51:23.445Z,94970.08
2018-05-08T11:53:51.702Z,94968.28
2018-05-08T11:56:19.937Z,94947.11
2018-05-08T11:58:48.961Z,94960.74
2018-05-08T12:01:17.209Z,94958.53
2018-05-08T12:03:46.201Z,94965.66
2018-05-08T12:06:15.209Z,94957.80
2018-05-08T12:08:43.450Z,94956.68
2018-05-08T12:11:11.689Z,94950.50
2018-05-08T12:13:39.939Z,94946.42
2018-05-08T12:16:08.198Z,94944.02
2018-05-08T12:18:37.287Z,94944.97
2018-05-08T12:21:06.405Z,94942.43
2018-05-08T12:23:34.639Z,94941.38
2018-05-08T12:26:02.867Z,94938.44
2018-05-08T12:28:31.127Z,94945.02
2018-05-08T12:30:59.357Z,94931.13
2018-05-08T12:33:27.610Z,94937.84
2018-05-08T12:35:55.874Z,94936.45
2018-05-08T12:38:24.162Z,94926.97
2018-05-08T12:40:52.381Z,94922.19
2018-05-08T12:43:21.403Z,94923.95
2018-05-08T12:45:49.639Z,94921.66
2018-05-08T12:48:18.246Z,94930.45
2018-05-08T12:50:47.374Z,94923.10
2018-05-08T12:53:15.615Z,94916.36
2018-05-08T12:55:44.682Z,94912.70
2018-05-08T12:58:12.909Z,94914.97
2018-05-08T13:00:41.162Z,94915.84
2018-05-08T13:03:09.447Z,94908.33
2018-05-08T13:05:37.809Z,94905.63
2018-05-08T13:08:06.829Z,94901.63
2018-05-08T13:10:35.064Z,94895.69
2018-05-08T13:13:03.363Z,94899.77
2018-05-08T13:15:32.359Z,94897.20
2018-05-08T13:18:00.595Z,94895.33
2018-05-08T13:20:28.946Z,94899.08
2018-05-08T13:22:57.181Z,94899.84
2018-05-08T13:25:25.430Z,94906.81
2018-05-08T13:27:53.733Z,94891.14
2018-05-08T13:30:22.734Z,94890.89
2018-05-08T13:32:50.985Z,94893.66
2018-05-08T13:35:19.986Z,94887.22
2018-05-08T13:37:49.016Z,94878.26
2018-05-08T13:40:17.371Z,94883.53
2018-05-08T13:42:46.362Z,94878.76
2018-05-08T13:45:14.593Z,94877.08
2018-05-08T13:47:42.837Z,94879.03
2018-05-08T13:50:11.073Z,94878.20
2018-05-08T13:52:40.082Z,94874.20
2018-05-08T13:55:09.127Z,94876.75
2018-05-08T13:57:37.325Z,94868.64
2018-05-08T14:00:05.574Z,94868.91
2018-05-08T14:02:33.813Z,94874.70
2018-05-08T14:05:02.059Z,94872.50
2018-05-08T14:07:31.061Z,94864.98
2018-05-08T14:10:00.062Z,94861.53
2018-05-08T14:12:29.083Z,94860.91
2018-05-08T14:14:57.662Z,94869.16
2018-05-08T14:17:25.895Z,94860.62
2018-05-08T14:19:54.123Z,94851.47
2018-05-08T14:22:22.388Z,94845.09
2018-05-08T14:24:50.702Z,94851.21
2018-05-08T14:27:18.843Z,94848.27
2018-05-08T14:29:47.091Z,94844.33
2018-05-08T14:32:15.330Z,94839.82
2018-05-08T14:34:43.651Z,94830.05
2018-05-08T14:37:11.813Z,94832.55
2018-05-08T14:39:40.856Z,94834.81
2018-05-08T14:42:09.390Z,94836.60
2018-05-08T14:44:38.398Z,94824.53
2018-05-08T14:47:06.626Z,94832.33
2018-05-08T14:49:34.984Z,94830.31
2018-05-08T14:52:03.306Z,94844.47
2018-05-08T14:54:32.306Z,94832.42
2018-05-08T14:57:01.402Z,94832.92
2018-05-08T14:59:30.409Z,94830.41
2018-05-08T15:01:58.658Z,94834.25
2018-05-08T15:04:27.782Z,94822.08
2018-05-08T15:06:55.910Z,94827.64
2018-05-08T15:09:25.661Z,94827.84
2018-05-08T15:11:53.908Z,94826.64
2018-05-08T15:14:22.917Z,94819.69
2018-05-08T15:16:51.914Z,94817.72
2018-05-08T15:19:20.170Z,94810.82
2018-05-08T15:21:48.422Z,94814.09
2018-05-08T15:24:16.630Z,94802.13
2018-05-08T15:26:45.646Z,94812.74
2018-05-08T15:29:13.982Z,94800.58
2018-05-08T15:31:42.113Z,94813.25
2018-05-08T15:34:10.362Z,94790.11
2018-05-08T15:36:38.594Z,94790.08
2018-05-08T15:39:06.919Z,94795.05
2018-05-08T15:41:35.081Z,94796.16
2018-05-08T15:44:04.078Z,94788.28
2018-05-08T15:46:32.329Z,94784.67
2018-05-08T15:49:00.579Z,94782.64
2018-05-08T15:51:28.809Z,94787.11
2018-05-08T15:53:57.043Z,94786.82
2018-05-08T15:56:25.292Z,94788.83
2018-05-08T15:58:53.553Z,94784.78
2018-05-08T16:01:21.812Z,94780.73
2018-05-08T16:03:50.042Z,94796.01
2018-05-08T16:06:18.281Z,94786.19
2018-05-08T16:08:46.517Z,94779.70
2018-05-08T16:11:15.516Z,94784.91
2018-05-08T16:13:44.526Z,94782.03
2018-05-08T16:16:12.765Z,94773.14
2018-05-08T16:18:41.010Z,94779.53
2018-05-08T16:21:09.242Z,94771.37
2018-05-08T16:23:37.525Z,94774.85
2018-05-08T16:26:05.757Z,94767.76
2018-05-08T16:28:33.991Z,94769.59
2018-05-08T16:31:02.238Z,94771.47
2018-05-08T16:33:31.399Z,94773.97
2018-05-08T16:35:59.617Z,94775.07
2018-05-08T16:38:27.851Z,94774.98
2018-05-08T16:40:56.093Z,94777.70
2018-05-08T16:43:24.337Z,94776.37
2018-05-08T16:45:53.338Z,94772.00
2018-05-08T16:48:21.594Z,94768.39
2018-05-08T16:50:49.990Z,94775.69
2018-05-08T16:53:18.991Z,94771.80
2018-05-08T16:55:47.227Z,94774.49
2018-05-08T16:58:15.468Z,94766.50
2018-05-08T17:00:43.706Z,94766.33
2018-05-08T17:03:11.962Z,94772.52
2018-05-08T17:05:40.211Z,94766.85
2018-05-08T17:08:08.441Z,94762.58
2018-05-08T17:10:36.752Z,94761.66
2018-05-08T17:13:04.922Z,94763.72
2018-05-08T17:15:33.158Z,94759.58
2018-05-08T17:18:02.175Z,94761.17
2018-05-08T17:20:30.409Z,94754.03
2018-05-08T17:22:59.413Z,94762.91
2018-05-08T17:25:28.458Z,94759.45
2018-05-08T17:27:56.662Z,94768.83
2018-05-08T17:30:24.910Z,94768.20
2018-05-08T17:32:53.141Z,94767.42
2018-05-08T17:35:21.394Z,94772.22
2018-05-08T17:37:49.638Z,94775.17
2018-05-08T17:40:17.899Z,94779.14
2018-05-08T17:42:46.138Z,94779.59
2018-05-08T17:45:15.146Z,94782.71
2018-05-08T17:47:43.393Z,94783.22
2018-05-08T17:50:12.426Z,94785.09
2018-05-08T17:52:40.651Z,94782.43
2018-05-08T17:55:08.894Z,94786.73
2018-05-08T17:57:37.127Z,94791.17
2018-05-08T18:00:06.142Z,94788.64
2018-05-08T18:02:34.378Z,94795.63
2018-05-08T18:05:02.606Z,94797.69
2018-05-08T18:07:30.853Z,94794.63
2018-05-08T18:09:59.102Z,94800.68
2018-05-08T18:12:27.350Z,94799.45
2018-05-08T18:14:55.585Z,94791.30
2018-05-08T18:17:23.860Z,94801.46
2018-05-08T18:19:52.065Z,94802.76
2018-05-08T18:22:20.310Z,94795.13
2018-05-08T18:24:48.542Z,94799.05
2018-05-08T18:27:16.789Z,94796.66
2018-05-08T18:29:45.034Z,94802.75
2018-05-08T18:32:13.274Z,94803.55
2018-05-08T18:34:41.521Z,94810.76
2018-05-08T18:37:09.754Z,94809.25
2018-05-08T18:39:37.985Z,94811.54
2018-05-08T18:42:06.235Z,94811.48
2018-05-08T18:44:35.233Z,94820.58
2018-05-08T18:47:03.490Z,94822.81
2018-05-08T18:49:31.891Z,94828.20
2018-05-08T18:52:00.115Z,94826.12
2018-05-08T18:54:29.130Z,94826.30
2018-05-08T18:56:57.591Z,94825.69
2018-05-08T18:59:26.594Z,94833.30
2018-05-08T19:01:54.853Z,94834.89
2018-05-08T19:04:23.080Z,94835.64
2018-05-08T19:06:51.341Z,94841.48
2018-05-08T19:09:19.559Z,94841.91
2018-05-08T19:11:47.791Z,94839.64
2018-05-08T19:14:16.034Z,94841.30
2018-05-08T19:16:45.041Z,94843.56
2018-05-08T19:19:18.764Z,94842.14
2018-05-08T19:21:46.994Z,94848.07
2018-05-08T19:24:20.703Z,94853.51
2018-05-08T19:26:48.926Z,94853.95
2018-05-08T19:29:22.670Z,94850.59
2018-05-08T19:31:51.669Z,94859.49
2018-05-08T19:34:19.905Z,94852.48
2018-05-08T19:36:53.486Z,94856.40
2018-05-08T19:39:21.730Z,94854.16
2018-05-08T19:41:50.718Z,94853.39
2018-05-08T19:44:19.730Z,94851.62
2018-05-08T19:46:47.994Z,94851.00
2018-05-08T19:49:16.223Z,94853.86
2018-05-08T19:51:44.553Z,94855.91
2018-05-08T19:54:13.550Z,94852.44
2018-05-08T19:56:41.793Z,94846.58
2018-05-08T19:59:10.026Z,94846.66
2018-05-08T20:01:38.378Z,94845.73
2018-05-08T20:04:07.378Z,94848.44
2018-05-08T20:06:35.618Z,94842.97
2018-05-08T20:09:03.857Z,94842.97
2018-05-08T20:11:32.137Z,94840.41
2018-05-08T20:14:00.368Z,94835.34
2018-05-08T20:16:29.377Z,94835.18
2018-05-08T20:18:57.605Z,94838.70
2018-05-08T20:21:27.364Z,94844.19
2018-05-08T20:23:55.594Z,94833.66
2018-05-08T20:26:23.850Z,94837.84
2018-05-08T20:28:52.080Z,94835.06
2018-05-08T20:31:20.314Z,94830.12
2018-05-08T20:33:48.568Z,94825.35
2018-05-08T20:36:16.807Z,94828.06
2018-05-08T20:38:45.108Z,94824.00
2018-05-08T20:41:13.338Z,94825.52
2018-05-08T20:43:42.335Z,94819.08
2018-05-08T20:46:11.354Z,94816.85
2018-05-08T20:48:39.641Z,94816.05
2018-05-08T20:51:07.862Z,94810.97
2018-05-08T20:53:36.117Z,94807.88
2018-05-08T20:56:04.348Z,94808.93
2018-05-08T20:58:32.596Z,94804.48
2018-05-08T21:01:00.875Z,94805.17
2018-05-08T21:03:29.069Z,94799.07
2018-05-08T21:05:58.068Z,94799.48
2018-05-08T21:08:26.314Z,94794.29
2018-05-08T21:10:54.553Z,94794.55
2018-05-08T21:13:22.812Z,94794.08
2018-05-08T21:15:51.050Z,94791.52
2018-05-08T21:18:20.050Z,94787.78
2018-05-08T21:20:49.070Z,94783.95
2018-05-08T21:23:17.330Z,94782.13
2018-05-08T21:25:46.325Z,94779.47
2018-05-08T21:28:20.033Z,94781.22
2018-05-08T21:30:53.919Z,94780.52
2018-05-08T21:33:22.133Z,94778.98
2018-05-08T21:35:50.398Z,94780.19
2018-05-08T21:38:18.638Z,94775.41
2018-05-08T21:40:47.649Z,94779.56
2018-05-08T21:43:16.655Z,94779.45
2018-05-08T21:45:44.886Z,94770.46
2018-05-08T21:48:13.145Z,94778.56
2018-05-08T21:50:41.403Z,94785.24
2018-05-08T21:53:09.645Z,94777.92
2018-05-08T21:55:37.876Z,94778.32
2018-05-08T21:58:06.105Z,94779.33
2018-05-08T22:00:34.650Z,94779.73
2018-05-08T22:03:02.890Z,94784.64
2018-05-08T22:05:31.134Z,94785.41
2018-05-08T22:07:59.374Z,94782.32
2018-05-08T22:10:27.613Z,94787.74
2018-05-08T22:12:55.873Z,94786.93
2018-05-08T22:15:24.167Z,94788.60
2018-05-08T22:17:52.418Z,94787.85
2018-05-08T22:20:20.665Z,94792.00
2018-05-08T22:22:48.898Z,94788.03
2018-05-08T22:25:17.213Z,94783.95
2018-05-08T22:27:45.715Z,94781.56
2018-05-08T22:30:13.977Z,94779.31
2018-05-08T22:32:42.982Z,94776.55
2018-05-08T22:35:11.994Z,94779.31
2018-05-08T22:37:40.237Z,94777.75
2018-05-08T22:40:09.263Z,94782.86
2018-05-08T22:42:37.498Z,94778.77
2018-05-08T22:45:05.745Z,94775.34
2018-05-08T22:47:34.291Z,94774.81
2018-05-08T22:50:02.536Z,94768.62
2018-05-08T22:52:30.766Z,94770.92
2018-05-08T22:54:59.001Z,94773.05
2018-05-08T22:57:28.005Z,94768.82
2018-05-08T22:59:56.253Z,94765.81
2018-05-08T23:02:25.262Z,94761.43
2018-05-08T23:07:28.761Z,94757.33
2018-05-08T23:09:56.985Z,94756.72
2018-05-08T23:12:25.213Z,94750.60
2018-05-08T23:14:54.221Z,94754.23
2018-05-08T23:17:23.230Z,94761.03
2018-05-08T23:19:51.476Z,94768.50
2018-05-08T23:22:20.481Z,94761.66
2018-05-08T23:24:49.478Z,94762.90
2018-05-08T23:27:17.738Z,94758.94
2018-05-08T23:29:46.734Z,94762.66
2018-05-08T23:32:15.737Z,94760.06
2018-05-08T23:34:44.742Z,94762.45
2018-05-08T23:37:12.990Z,94759.47
2018-05-08T23:39:42.034Z,94756.23
2018-05-08T23:42:10.282Z,94755.78
2018-05-08T23:44:38.518Z,94753.55
2018-05-08T23:47:07.066Z,94759.25
2018-05-08T23:49:35.301Z,94756.70
2018-05-08T23:52:04.308Z,94755.88
2018-05-08T23:54:32.556Z,94752.11
2018-05-08T23:57:00.789Z,94750.66
2018-05-08T23:59:29.034Z,94751.69
